Time;durP1;ratioP1;P1;durP2;ratioP2;P2;SDS_P1;SDS_P2;PMS_P1;PMS_P2;Temp;Humidity;BMP_temperature;BMP_pressure;BME280_temperature;BME280_humidity;BME280_pressure;Samples;Min_cycle;Max_cycle;Signal;HPM_P1;HPM_P2
2023/12/30 00:00:59;;;;;;;7.80;6.32;;;;;;;29.59;56.65;101024.84;4964380;28;70805;-38
2023/12/30 00:03:29;;;;;;;9.35;6.20;;;;;;;29.51;58.18;101019.63;4967202;28;66297;-37
2023/12/30 00:06:00;;;;;;;7.65;5.72;;;;;;;29.63;57.17;101020.69;4986934;28;70340;-38
2023/12/30 00:08:30;;;;;;;9.60;5.75;;;;;;;29.58;57.89;101023.16;4951211;28;66251;-38
2023/12/30 00:11:01;;;;;;;6.13;5.63;;;;;;;29.66;57.86;101024.84;4952040;28;70179;-38
2023/12/30 00:13:31;;;;;;;9.88;6.20;;;;;;;29.69;57.63;101030.66;4977771;28;66547;-37
2023/12/30 00:16:02;;;;;;;6.57;5.88;;;;;;;29.57;58.16;101021.50;4975001;28;70581;-37
2023/12/30 00:18:32;;;;;;;6.05;5.55;;;;;;;29.60;57.42;101016.50;4977271;28;68095;-37
2023/12/30 00:21:02;;;;;;;12.98;7.43;;;;;;;29.75;58.54;101037.94;4964916;28;69364;-38
2023/12/30 00:23:35;;;;;;;10.15;9.10;;;;;;;29.81;58.96;101041.69;4983005;28;65880;-37
2023/12/30 00:26:25;;;;;;;21.13;10.13;;;;;;;29.77;63.62;101043.16;4978199;28;69905;-38
2023/12/30 00:29:21;;;;;;;26.52;12.15;;;;;;;29.89;61.35;101046.06;4962859;28;66413;-37
2023/12/30 00:31:53;;;;;;;20.05;13.73;;;;;;;29.82;62.94;101030.66;4965136;28;70099;-38
2023/12/30 00:34:23;;;;;;;27.05;14.38;;;;;;;29.99;62.95;101046.47;4970295;28;65702;-39
2023/12/30 00:36:54;;;;;;;22.55;12.13;;;;;;;29.95;64.75;101037.09;4950409;28;70089;-38
2023/12/30 00:39:24;;;;;;;27.67;13.18;;;;;;;29.95;66.98;101045.19;4964980;28;65912;-39
2023/12/30 00:41:54;;;;;;;24.92;13.50;;;;;;;30.03;66.01;101055.81;4969512;28;69285;-39
2023/12/30 00:44:24;;;;;;;25.80;12.45;;;;;;;29.91;70.03;101038.56;4951929;28;65138;-40
2023/12/30 00:46:54;;;;;;;25.92;13.60;;;;;;;29.98;67.05;101042.09;4966890;28;69349;-40
2023/12/30 00:49:24;;;;;;;31.55;13.95;;;;;;;30.08;67.56;101049.78;4975573;28;65905;-39
2023/12/30 00:51:55;;;;;;;27.88;12.43;;;;;;;29.94;69.54;101030.03;4972745;28;70001;-39
2023/12/30 00:54:25;;;;;;;29.02;13.10;;;;;;;30.14;67.79;101049.75;4963500;28;66607;-39
2023/12/30 00:57:05;;;;;;;24.25;13.02;;;;;;;30.13;68.29;101058.09;4944831;28;69730;-40
2023/12/30 00:59:35;;;;;;;22.88;13.57;;;;;;;30.17;67.92;101065.59;4964715;28;66855;-38
2023/12/30 01:02:06;;;;;;;38.10;19.45;;;;;;;30.16;69.27;101072.03;4989264;28;70219;-39
2023/12/30 01:04:36;;;;;;;39.95;22.30;;;;;;;30.19;68.23;101078.88;4985353;28;65258;-39
2023/12/30 01:07:07;;;;;;;33.70;21.60;;;;;;;30.14;72.90;101065.97;4930730;28;69763;-41
2023/12/30 01:09:37;;;;;;;35.92;20.10;;;;;;;30.15;68.62;101067.66;4971314;28;66356;-40
2023/12/30 01:12:08;;;;;;;36.65;17.83;;;;;;;30.25;70.60;101083.47;4933456;28;70207;-39
2023/12/30 01:14:38;;;;;;;28.55;17.85;;;;;;;30.23;69.24;101080.19;4955396;28;66214;-40
2023/12/30 01:17:08;;;;;;;30.80;17.45;;;;;;;30.27;70.82;101098.47;4958722;28;70650;-39
2023/12/30 01:19:38;;;;;;;36.65;17.88;;;;;;;30.24;69.82;101085.38;4943808;28;66714;-40
2023/12/30 01:22:10;;;;;;;28.38;18.42;;;;;;;30.29;70.39;101084.75;4958824;28;70566;-39
2023/12/30 01:24:41;;;;;;;30.30;18.90;;;;;;;30.41;68.82;101098.44;4957578;28;66469;-40
2023/12/30 01:27:11;;;;;;;33.28;19.08;;;;;;;30.47;68.88;101108.41;4944094;28;71058;-40
2023/12/30 01:29:41;;;;;;;28.75;19.58;;;;;;;30.24;74.12;101096.19;4944100;28;66292;-39
2023/12/30 01:32:12;;;;;;;39.03;21.27;;;;;;;30.39;72.42;101111.34;4956071;28;70444;-39
2023/12/30 01:34:42;;;;;;;48.95;29.20;;;;;;;30.35;76.89;101116.34;4949495;28;66302;-38
2023/12/30 01:37:14;;;;;;;68.30;39.47;;;;;;;30.27;72.78;101097.63;4968194;28;72460;-38
2023/12/30 01:39:44;;;;;;;78.45;46.22;;;;;;;29.94;72.70;101048.97;4957823;28;65575;-38
2023/12/30 01:42:15;;;;;;;78.05;48.28;;;;;;;30.23;75.56;101102.66;4960037;28;69999;-39
2023/12/30 01:44:45;;;;;;;87.18;49.17;;;;;;;30.35;74.09;101127.19;4938390;28;66301;-38
2023/12/30 01:47:16;;;;;;;80.80;50.63;;;;;;;30.34;77.68;101132.78;4952099;28;70162;-40
2023/12/30 01:49:47;;;;;;;86.25;55.13;;;;;;;30.39;73.88;101120.28;4961700;28;66166;-38
2023/12/30 01:52:17;;;;;;;83.68;53.78;;;;;;;30.39;73.94;101124.88;4963344;28;70485;-39
2023/12/30 01:54:48;;;;;;;83.03;53.60;;;;;;;30.36;77.54;101133.44;4955325;28;66186;-39
2023/12/30 01:57:19;;;;;;;92.40;59.22;;;;;;;30.43;73.52;101134.25;4941790;28;70180;-40
2023/12/30 01:59:51;;;;;;;90.50;60.88;;;;;;;30.38;77.29;101136.75;4954831;28;65281;-41
2023/12/30 02:02:22;;;;;;;111.90;71.82;;;;;;;30.37;76.63;101141.34;4947873;28;69886;-40
2023/12/30 02:04:53;;;;;;;100.00;68.97;;;;;;;30.30;75.21;101123.44;4967969;28;66182;-39
2023/12/30 02:07:24;;;;;;;96.03;61.00;;;;;;;30.42;75.48;101149.66;4975605;28;70236;-40
2023/12/30 02:09:55;;;;;;;;;;;;;;;30.21;78.88;101137.16;4952484;28;66615;-40
2023/12/30 02:12:25;;;;;;;93.60;59.33;;;;;;;30.44;77.34;101133.19;4965715;28;70055;-40
2023/12/30 02:15:11;;;;;;;86.88;57.38;;;;;;;30.47;75.49;101130.06;4960958;28;65337;-40
2023/12/30 02:17:41;;;;;;;94.25;59.75;;;;;;;30.45;75.75;101115.91;4960685;28;71646;-41
2023/12/30 02:20:12;;;;;;;85.60;56.50;;;;;;;30.21;74.70;101085.75;4944964;28;66284;-41
2023/12/30 02:22:46;;;;;;;88.15;58.75;;;;;;;30.57;76.83;101124.22;4940238;28;70177;-42
2023/12/30 02:25:18;;;;;;;85.22;56.05;;;;;;;30.62;74.60;101125.25;4967864;28;66597;-42
2023/12/30 02:27:49;;;;;;;88.20;55.50;;;;;;;30.59;75.53;101116.72;4935933;28;70422;-38
2023/12/30 02:30:21;;;;;;;84.82;53.28;;;;;;;30.69;72.76;101123.34;4962175;28;66673;-38
2023/12/30 02:32:55;;;;;;;;;;;;;;;30.46;77.53;101125.72;4947461;28;70653;-38
2023/12/30 02:35:27;;;;;;;79.70;50.28;;;;;;;30.69;74.78;101131.47;4953001;28;66191;-39
2023/12/30 02:37:57;;;;;;;;;;;;;;;30.50;77.22;101127.75;4941980;28;70314;-39
2023/12/30 02:40:27;;;;;;;68.90;41.50;;;;;;;30.73;75.50;101132.72;4966646;28;66665;-41
2023/12/30 02:42:57;;;;;;;65.18;40.03;;;;;;;30.80;74.08;101130.00;4946214;28;70401;-39
2023/12/30 02:45:28;;;;;;;53.60;34.28;;;;;;;30.83;72.54;101123.34;4954941;28;67464;-40
2023/12/30 02:47:58;;;;;;;54.05;31.05;;;;;;;30.86;73.76;101128.31;4971826;28;70352;-39
2023/12/30 02:50:29;;;;;;;49.28;32.13;;;;;;;30.79;73.06;101100.41;4953929;28;67105;-38
2023/12/30 02:52:59;;;;;;;50.88;31.52;;;;;;;30.89;74.71;101125.19;4961134;28;69838;-40
2023/12/30 02:55:29;;;;;;;48.95;30.38;;;;;;;30.97;71.84;101119.53;4955762;28;66766;-40
2023/12/30 02:57:59;;;;;;;50.47;30.70;;;;;;;30.98;72.11;101113.06;4961647;28;70546;-41
2023/12/30 03:00:30;;;;;;;47.20;28.38;;;;;;;31.00;71.86;101112.84;4946488;28;66886;-39
2023/12/30 03:03:00;;;;;;;50.95;29.40;;;;;;;30.97;73.82;101110.56;4947038;28;70277;-40
2023/12/30 03:05:32;;;;;;;44.95;27.88;;;;;;;30.67;73.64;101060.47;4962121;28;66609;-39
2023/12/30 03:08:03;;;;;;;45.55;27.23;;;;;;;30.86;71.94;101090.41;4952728;28;69734;-40
2023/12/30 03:10:33;;;;;;;44.53;26.25;;;;;;;31.04;72.09;101104.06;4942424;28;65157;-41
2023/12/30 03:13:04;;;;;;;40.88;25.10;;;;;;;31.01;72.18;101109.94;4943663;28;70223;-40
2023/12/30 03:15:35;;;;;;;40.10;25.63;;;;;;;30.97;73.94;101108.69;4960775;28;66037;-39
2023/12/30 03:18:05;;;;;;;35.50;25.10;;;;;;;31.01;72.78;101095.53;4944820;28;70246;-40
2023/12/30 03:20:36;;;;;;;46.90;26.38;;;;;;;31.08;72.68;101099.88;4952184;28;65550;-39
2023/12/30 03:23:06;;;;;;;32.97;23.98;;;;;;;31.00;73.48;101092.00;4948910;28;70821;-40
2023/12/30 03:25:38;;;;;;;37.90;26.15;;;;;;;31.11;72.41;101099.44;4973214;28;65317;-41
2023/12/30 03:28:08;;;;;;;34.45;23.85;;;;;;;31.16;71.46;101086.06;4953653;28;69794;-41
2023/12/30 03:30:39;;;;;;;28.63;22.27;;;;;;;31.20;71.12;101086.47;4952522;28;67837;-41
2023/12/30 03:33:09;;;;;;;30.45;21.60;;;;;;;31.28;70.76;101072.66;4949930;28;70077;-41
2023/12/30 03:35:40;;;;;;;28.02;19.92;;;;;;;31.47;70.22;101092.59;4945013;28;66542;-40
2023/12/30 03:38:10;;;;;;;29.58;20.35;;;;;;;31.51;69.86;101088.41;4951342;28;69995;-41
2023/12/30 03:40:40;;;;;;;30.58;20.67;;;;;;;31.54;70.00;101076.28;4968997;28;65638;-40
2023/12/30 03:43:12;;;;;;;30.48;21.23;;;;;;;31.62;69.95;101078.69;4943210;28;70462;-40
2023/12/30 03:45:42;;;;;;;;;;;;;;;31.32;71.67;101076.59;4977322;28;66936;-40
2023/12/30 03:48:13;;;;;;;24.13;19.10;;;;;;;31.64;69.46;101078.50;4930801;28;70412;-41
2023/12/30 03:50:43;;;;;;;26.35;20.60;;;;;;;31.69;69.70;101073.22;4969532;28;66356;-41
2023/12/30 03:53:14;;;;;;;27.75;19.83;;;;;;;31.57;71.90;101065.81;4964333;28;70642;-43
2023/12/30 03:55:44;;;;;;;31.70;24.15;;;;;;;31.51;71.12;101061.28;4942958;28;66501;-40
2023/12/30 03:58:15;;;;;;;35.70;24.33;;;;;;;31.50;71.76;101064.19;4946829;28;69971;-40
2023/12/30 04:00:45;;;;;;;31.05;23.13;;;;;;;31.45;71.61;101059.44;4977397;28;65754;-41
2023/12/30 04:03:16;;;;;;;30.92;22.55;;;;;;;31.45;72.50;101045.88;4947315;28;70541;-40
2023/12/30 04:05:47;;;;;;;32.33;21.40;;;;;;;31.30;72.66;101026.38;4950408;28;66697;-42
2023/12/30 04:08:17;;;;;;;28.92;20.83;;;;;;;31.40;72.39;101037.59;4946803;28;69807;-41
2023/12/30 04:10:47;;;;;;;26.20;21.73;;;;;;;31.31;74.00;101018.00;4944163;28;66340;-40
2023/12/30 04:13:18;;;;;;;33.97;20.58;;;;;;;31.45;72.46;101032.31;4951675;28;70127;-40
2023/12/30 04:15:49;;;;;;;24.73;20.87;;;;;;;31.40;74.09;101018.63;4957814;28;66264;-41
2023/12/30 04:18:20;;;;;;;25.42;19.38;;;;;;;31.41;74.33;101016.75;4936638;28;68844;-41
2023/12/30 04:20:50;;;;;;;29.20;20.02;;;;;;;31.09;73.21;100963.38;4953637;28;66267;-42
2023/12/30 04:23:20;;;;;;;28.70;20.65;;;;;;;31.42;75.41;101010.25;4972515;28;70124;-41
2023/12/30 04:25:50;;;;;;;22.90;20.13;;;;;;;31.46;74.40;101009.59;4945912;28;67134;-40
2023/12/30 04:28:21;;;;;;;26.35;19.45;;;;;;;31.47;73.64;100994.16;4953371;28;70700;-42
2023/12/30 04:30:52;;;;;;;24.52;20.08;;;;;;;31.45;75.32;100996.25;4950107;28;66787;-41
2023/12/30 04:33:22;;;;;;;24.73;20.35;;;;;;;31.49;75.92;100998.31;4948374;28;70147;-41
2023/12/30 04:35:53;;;;;;;36.92;19.88;;;;;;;31.52;74.39;100984.31;4945446;28;67192;-42
2023/12/30 04:38:23;;;;;;;28.60;19.70;;;;;;;31.47;74.31;100972.47;4966061;28;70205;-42
2023/12/30 04:40:53;;;;;;;23.90;18.58;;;;;;;31.44;74.85;100973.75;4955091;28;66080;-42
2023/12/30 04:43:24;;;;;;;27.33;19.13;;;;;;;31.57;74.10;100978.22;4954823;28;70478;-42
2023/12/30 04:45:54;;;;;;;26.90;19.45;;;;;;;31.50;76.03;100966.59;4953316;28;66167;-41
2023/12/30 04:48:25;;;;;;;25.30;19.55;;;;;;;31.59;75.64;100968.81;4975621;28;70343;-41
2023/12/30 04:50:55;;;;;;;25.60;18.70;;;;;;;31.80;72.39;100956.69;4969426;28;66673;-42
2023/12/30 04:53:26;;;;;;;23.70;16.73;;;;;;;31.90;72.04;100967.03;4969887;28;70493;-42
2023/12/30 04:55:56;;;;;;;18.27;16.48;;;;;;;31.91;71.68;100947.03;4948600;28;66633;-41
2023/12/30 04:58:26;;;;;;;18.27;15.63;;;;;;;31.99;71.44;100946.72;4938128;28;70736;-41
2023/12/30 05:00:57;;;;;;;17.92;15.32;;;;;;;32.04;71.05;100946.06;4958651;28;66626;-41
2023/12/30 05:03:27;;;;;;;21.65;15.35;;;;;;;32.12;70.91;100942.19;4965201;28;70477;-41
2023/12/30 05:05:58;;;;;;;17.58;15.57;;;;;;;32.18;70.72;100946.69;4968848;28;66825;-41
2023/12/30 05:08:29;;;;;;;17.92;14.55;;;;;;;32.19;70.52;100932.91;4957995;28;70020;-41
2023/12/30 05:11:06;;;;;;;16.73;14.45;;;;;;;32.08;70.73;100911.16;4941575;28;65330;-44
2023/12/30 05:13:37;;;;;;;16.05;14.32;;;;;;;32.25;70.45;100925.75;4955396;28;69288;-41
2023/12/30 05:16:07;;;;;;;15.63;13.73;;;;;;;32.21;70.41;100908.28;4973475;28;66597;-42
2023/12/30 05:18:38;;;;;;;15.75;14.20;;;;;;;32.33;70.20;100917.28;4960505;28;71371;-41
2023/12/30 05:21:17;;;;;;;16.13;13.70;;;;;;;31.79;70.36;100818.63;4969983;28;66604;-42
2023/12/30 05:23:48;;;;;;;15.80;14.18;;;;;;;32.36;70.12;100905.13;4943956;28;69164;-41
2023/12/30 05:26:18;;;;;;;18.00;14.52;;;;;;;32.10;70.99;100895.47;4969333;28;66745;-42
2023/12/30 05:28:48;;;;;;;15.77;13.80;;;;;;;32.08;70.25;100898.41;4976626;28;69637;-39
2023/12/30 05:31:18;;;;;;;24.40;13.43;;;;;;;32.13;69.49;100897.72;4965213;28;66066;-40
2023/12/30 05:33:49;;;;;;;14.75;12.40;;;;;;;32.13;69.08;100901.25;4969560;28;70850;-39
2023/12/30 05:36:19;;;;;;;21.13;12.73;;;;;;;32.15;68.81;100903.72;4951402;28;65183;-42
2023/12/30 05:38:50;;;;;;;15.23;11.30;;;;;;;32.12;68.77;100890.63;4972707;28;70530;-39
2023/12/30 05:41:20;;;;;;;15.45;11.45;;;;;;;31.92;67.96;100883.56;4938174;28;66015;-42
2023/12/30 05:43:51;;;;;;;12.57;11.27;;;;;;;31.81;67.47;100876.16;4947751;28;70323;-40
2023/12/30 05:46:22;;;;;;;11.27;10.02;;;;;;;31.69;66.20;100877.97;4953529;28;66561;-39
2023/12/30 05:48:53;;;;;;;9.80;9.05;;;;;;;31.61;65.60;100866.34;4946808;28;69022;-39
2023/12/30 05:51:23;;;;;;;11.05;9.90;;;;;;;31.53;65.43;100863.94;4969685;28;66185;-39
2023/12/30 05:53:54;;;;;;;9.98;9.10;;;;;;;31.51;66.14;100857.94;4961766;28;69133;-40
2023/12/30 05:56:24;;;;;;;9.77;8.98;;;;;;;31.42;64.10;100856.56;4981249;28;65573;-40
2023/12/30 05:58:55;;;;;;;11.18;8.90;;;;;;;31.51;65.02;100852.53;4981211;28;70062;-40
2023/12/30 06:01:25;;;;;;;12.10;8.10;;;;;;;31.73;63.96;100862.91;4959054;28;66570;-39
2023/12/30 06:03:55;;;;;;;16.35;8.40;;;;;;;31.73;63.22;100843.91;4940563;28;69582;-40
2023/12/30 06:06:26;;;;;;;8.55;7.82;;;;;;;31.77;62.61;100847.84;4973281;28;65080;-39
2023/12/30 06:08:58;;;;;;;8.00;7.38;;;;;;;31.75;61.96;100841.81;4967097;28;68885;-38
2023/12/30 06:11:29;;;;;;;8.55;7.68;;;;;;;31.69;61.68;100829.16;4944261;28;66065;-40
2023/12/30 06:13:59;;;;;;;7.25;6.70;;;;;;;31.63;61.13;100830.91;4956441;28;69833;-39
2023/12/30 06:16:30;;;;;;;7.35;6.88;;;;;;;31.64;61.07;100826.31;4960556;28;66618;-39
2023/12/30 06:19:00;;;;;;;7.88;7.00;;;;;;;31.65;60.31;100830.66;4944375;28;68889;-40
2023/12/30 06:21:31;;;;;;;7.68;6.97;;;;;;;31.08;60.28;100734.13;4953394;28;66630;-40
2023/12/30 06:24:01;;;;;;;7.43;6.78;;;;;;;31.58;59.99;100817.19;4960357;28;70033;-40
2023/12/30 06:26:35;;;;;;;7.72;7.10;;;;;;;31.58;59.48;100818.00;4961335;28;66683;-40
2023/12/30 06:29:08;;;;;;;8.65;6.97;;;;;;;31.55;58.58;100817.66;4947295;28;70481;-39
2023/12/30 06:31:42;;;;;;;7.38;6.82;;;;;;;31.56;57.04;100801.13;4960338;28;66477;-46
2023/12/30 06:34:13;;;;;;;10.80;7.57;;;;;;;31.55;58.29;100801.38;4960830;28;70278;-40
2023/12/30 06:36:45;;;;;;;8.70;7.60;;;;;;;31.53;58.12;100793.47;4941264;28;65365;-40
2023/12/30 06:39:20;;;;;;;10.25;7.30;;;;;;;31.48;57.67;100785.19;4971915;28;70131;-40
2023/12/30 06:41:50;;;;;;;8.02;7.40;;;;;;;31.50;57.63;100783.06;4968213;28;65695;-40
2023/12/30 06:44:20;;;;;;;6.78;6.30;;;;;;;31.15;57.50;100724.03;4976029;28;69761;-40
2023/12/30 06:46:51;;;;;;;7.15;6.75;;;;;;;31.47;56.86;100761.84;4969618;28;66284;-39
2023/12/30 06:49:21;;;;;;;6.95;6.55;;;;;;;31.43;56.92;100757.94;4976964;28;70190;-39
2023/12/30 06:51:52;;;;;;;7.55;6.93;;;;;;;31.35;56.63;100739.25;4927528;28;66771;-40
2023/12/30 06:54:23;;;;;;;7.07;6.57;;;;;;;31.46;56.14;100757.47;4925474;28;69161;-39
2023/12/30 06:56:53;;;;;;;6.95;6.45;;;;;;;31.26;56.12;100737.88;4951860;28;65754;-39
2023/12/30 06:59:23;;;;;;;7.30;6.75;;;;;;;31.42;55.83;100758.97;4958571;28;68947;-40
2023/12/30 07:01:54;;;;;;;6.78;6.35;;;;;;;31.38;55.37;100760.50;4930521;28;66172;-39
2023/12/30 07:04:26;;;;;;;7.03;6.32;;;;;;;31.30;55.40;100749.94;4951147;28;69929;-41
2023/12/30 07:06:57;;;;;;;6.65;6.20;;;;;;;31.36;55.28;100759.88;4934770;28;65014;-41
2023/12/30 07:09:27;;;;;;;6.43;5.93;;;;;;;31.34;54.90;100756.53;4958322;28;69904;-39
2023/12/30 07:11:59;;;;;;;6.22;5.82;;;;;;;31.22;54.99;100731.25;4943524;28;66327;-41
2023/12/30 07:14:34;;;;;;;7.22;6.30;;;;;;;31.35;54.94;100759.03;4929715;28;70422;-40
2023/12/30 07:17:05;;;;;;;6.75;6.15;;;;;;;31.38;54.83;100746.94;4963666;28;66773;-44
2023/12/30 07:19:35;;;;;;;6.65;6.18;;;;;;;31.39;54.63;100743.16;4979427;28;69190;-39
2023/12/30 07:22:05;;;;;;;7.35;6.70;;;;;;;31.40;54.79;100744.84;4981569;28;66547;-40
2023/12/30 07:24:37;;;;;;;7.40;6.80;;;;;;;31.06;54.91;100695.56;4959347;28;70176;-40
2023/12/30 07:27:08;;;;;;;6.90;6.30;;;;;;;31.26;54.97;100721.59;4966048;28;66092;-40
2023/12/30 07:29:39;;;;;;;8.63;6.10;;;;;;;31.54;55.88;100746.34;4968855;28;70812;-40
2023/12/30 07:32:09;;;;;;;7.22;6.55;;;;;;;31.58;57.11;100725.00;4993794;28;66413;-40
2023/12/30 07:34:40;;;;;;;7.50;6.80;;;;;;;31.81;58.25;100737.81;4998493;28;69191;-39
2023/12/30 07:37:11;;;;;;;9.70;7.25;;;;;;;31.95;58.56;100735.78;4978635;28;65835;-39
2023/12/30 07:39:41;;;;;;;13.88;7.38;;;;;;;31.97;59.08;100726.34;4980333;28;70618;-42
2023/12/30 07:42:12;;;;;;;7.43;6.85;;;;;;;32.17;59.39;100734.19;4971046;28;65803;-45
2023/12/30 07:44:42;;;;;;;10.13;7.25;;;;;;;32.11;59.11;100712.59;4992377;28;70353;-41
2023/12/30 07:47:14;;;;;;;7.10;6.50;;;;;;;32.34;59.21;100731.63;4965590;28;65249;-40
2023/12/30 07:49:49;;;;;;;6.95;6.35;;;;;;;32.42;59.19;100725.84;4950370;28;68755;-40
2023/12/30 07:52:20;;;;;;;9.80;6.70;;;;;;;32.51;59.29;100728.25;4969317;28;65850;-39
2023/12/30 07:54:51;;;;;;;;;;;;;;;32.38;58.68;100721.97;4985354;28;69352;-40
2023/12/30 07:57:22;;;;;;;10.18;7.10;;;;;;;32.55;59.06;100708.53;4984092;28;66284;-39
2023/12/30 07:59:53;;;;;;;8.05;7.13;;;;;;;32.71;59.44;100723.31;4982795;28;69256;-40
2023/12/30 08:02:23;;;;;;;8.95;7.03;;;;;;;32.72;59.55;100714.09;4965111;28;66108;-40
2023/12/30 08:04:56;;;;;;;7.70;7.00;;;;;;;32.74;59.37;100700.28;4991662;28;70428;-39
2023/12/30 08:07:27;;;;;;;7.15;6.63;;;;;;;32.93;59.56;100723.50;4983146;28;66020;-40
2023/12/30 08:09:57;;;;;;;7.65;6.95;;;;;;;32.64;59.54;100669.09;4979099;28;69922;-39
2023/12/30 08:12:28;;;;;;;7.80;7.10;;;;;;;32.97;59.62;100704.84;4981580;28;66286;-40
2023/12/30 08:14:59;;;;;;;6.97;6.43;;;;;;;33.07;59.82;100715.97;4989658;28;70069;-40
2023/12/30 08:17:29;;;;;;;10.93;7.55;;;;;;;33.15;59.64;100712.88;4949747;28;65688;-41
2023/12/30 08:20:00;;;;;;;7.03;6.53;;;;;;;33.21;59.72;100722.81;4961082;28;70077;-40
2023/12/30 08:22:30;;;;;;;7.32;6.72;;;;;;;33.27;59.73;100718.31;4960779;28;66216;-41
2023/12/30 08:25:00;;;;;;;8.10;6.55;;;;;;;33.17;60.27;100704.50;4969244;28;70856;-38
2023/12/30 08:27:31;;;;;;;8.35;7.25;;;;;;;33.31;60.11;100717.56;4970131;28;65860;-38
2023/12/30 08:30:01;;;;;;;7.55;6.22;;;;;;;33.33;60.69;100712.72;4967975;28;69708;-36
2023/12/30 08:32:31;;;;;;;6.28;5.57;;;;;;;33.38;60.68;100704.66;4965670;28;66621;-37
2023/12/30 08:35:02;;;;;;;6.38;5.88;;;;;;;33.35;60.88;100707.88;4967660;28;69658;-38
2023/12/30 08:37:34;;;;;;;9.75;6.68;;;;;;;33.25;61.82;100717.72;4963809;28;65860;-39
2023/12/30 08:40:10;;;;;;;7.57;6.20;;;;;;;33.18;62.52;100717.00;4966832;28;70157;-38
2023/12/30 08:42:44;;;;;;;7.35;6.47;;;;;;;33.08;62.84;100718.44;4974119;28;66776;-39
2023/12/30 08:45:18;;;;;;;6.22;5.63;;;;;;;33.11;62.83;100722.59;4972704;28;69953;-38
2023/12/30 08:47:48;;;;;;;6.63;5.97;;;;;;;33.11;62.89;100722.59;4960222;28;66165;-38
2023/12/30 08:50:19;;;;;;;5.40;5.00;;;;;;;33.18;62.53;100715.09;4968117;28;70449;-39
2023/12/30 08:52:49;;;;;;;5.00;4.60;;;;;;;33.12;62.92;100707.91;4974570;28;67020;-39
2023/12/30 08:55:19;;;;;;;5.20;4.80;;;;;;;33.19;62.81;100724.09;4955651;28;69438;-38
2023/12/30 08:57:50;;;;;;;5.45;5.03;;;;;;;33.01;63.26;100709.59;4966847;28;65412;-38
2023/12/30 09:00:20;;;;;;;5.38;4.97;;;;;;;33.21;62.79;100730.97;4964057;28;70770;-38
2023/12/30 09:02:55;;;;;;;5.43;4.95;;;;;;;33.21;62.93;100722.81;4967478;28;66002;-38
2023/12/30 09:05:25;;;;;;;6.70;5.15;;;;;;;33.09;63.75;100719.28;4966640;28;70614;-38
2023/12/30 09:07:56;;;;;;;5.77;5.13;;;;;;;33.24;63.45;100735.91;4952548;28;66652;-40
2023/12/30 09:10:27;;;;;;;6.28;5.32;;;;;;;33.28;64.14;100745.22;4971923;28;70148;-40
2023/12/30 09:12:58;;;;;;;6.20;5.60;;;;;;;33.28;64.21;100745.22;4963644;28;65947;-37
2023/12/30 09:15:30;;;;;;;6.55;5.30;;;;;;;33.32;63.75;100740.97;4966133;28;70467;-38
2023/12/30 09:18:01;;;;;;;5.20;3.90;;;;;;;33.30;65.37;100750.44;4969409;28;65913;-37
2023/12/30 09:20:32;;;;;;;4.82;4.43;;;;;;;33.30;64.87;100751.25;4967449;28;71148;-38
2023/12/30 09:23:02;;;;;;;8.00;4.30;;;;;;;33.27;65.02;100738.16;4968598;28;66346;-38
2023/12/30 09:25:33;;;;;;;4.40;4.00;;;;;;;33.28;65.22;100750.66;4966175;28;70517;-37
2023/12/30 09:28:03;;;;;;;5.88;3.80;;;;;;;33.27;66.31;100770.78;4978801;28;66692;-37
2023/12/30 09:30:34;;;;;;;5.93;4.10;;;;;;;33.33;65.55;100775.25;4980270;28;71573;-39
2023/12/30 09:33:04;;;;;;;4.82;4.32;;;;;;;33.32;65.92;100773.59;4958267;28;66638;-39
2023/12/30 09:35:39;;;;;;;5.78;4.57;;;;;;;33.36;66.22;100777.47;4964884;28;70891;-38
2023/12/30 09:38:10;;;;;;;4.00;3.70;;;;;;;33.33;65.41;100774.44;4952638;28;65283;-37
2023/12/30 09:40:40;;;;;;;4.28;3.97;;;;;;;33.36;66.54;100780.19;4964780;28;70032;-39
2023/12/30 09:43:14;;;;;;;4.55;4.03;;;;;;;33.19;66.18;100757.56;4961459;28;66533;-37
2023/12/30 09:45:45;;;;;;;5.50;4.35;;;;;;;33.40;66.20;100793.31;4967205;28;70788;-37
2023/12/30 09:48:16;;;;;;;10.38;4.03;;;;;;;33.46;66.30;100792.34;4961078;28;66720;-38
2023/12/30 09:50:49;;;;;;;9.43;5.05;;;;;;;33.44;65.35;100797.22;4969519;28;70331;-37
2023/12/30 09:53:22;;;;;;;11.57;5.18;;;;;;;33.58;64.42;100794.00;4969193;28;66757;-41
2023/12/30 09:55:53;;;;;;;5.30;4.05;;;;;;;33.85;64.64;100798.06;4974528;28;70335;-39
2023/12/30 09:58:24;;;;;;;4.60;4.20;;;;;;;33.96;63.92;100811.63;4966218;28;67185;-38
2023/12/30 10:00:54;;;;;;;4.37;3.97;;;;;;;34.04;63.80;100810.41;4974478;28;69243;-39
2023/12/30 10:03:25;;;;;;;7.30;3.88;;;;;;;34.12;63.48;100818.19;4946017;28;65275;-39
2023/12/30 10:05:59;;;;;;;9.40;3.70;;;;;;;33.71;63.38;100749.41;4971700;28;69435;-39
2023/12/30 10:08:31;;;;;;;3.95;3.65;;;;;;;34.19;63.85;100815.34;4972407;28;65484;-38
2023/12/30 10:11:01;;;;;;;4.25;3.85;;;;;;;34.23;63.32;100820.03;4957206;28;69862;-38
2023/12/30 10:13:31;;;;;;;6.45;4.10;;;;;;;34.25;63.03;100831.50;4967030;28;66531;-39
2023/12/30 10:16:05;;;;;;;4.70;3.40;;;;;;;34.29;62.92;100839.19;4976460;28;70820;-39
2023/12/30 10:18:37;;;;;;;3.58;3.28;;;;;;;34.20;64.11;100836.88;4975883;28;67026;-40
2023/12/30 10:21:08;;;;;;;5.03;3.85;;;;;;;33.66;64.74;100822.72;4972409;28;69852;-39
2023/12/30 10:23:39;;;;;;;5.25;4.20;;;;;;;33.53;65.14;100834.69;4974934;28;66000;-40
2023/12/30 10:26:09;;;;;;;9.27;4.03;;;;;;;33.44;64.98;100835.28;4968227;28;70424;-38
2023/12/30 10:28:39;;;;;;;37.25;8.55;;;;;;;33.41;64.92;100841.22;4952056;28;66127;-38
2023/12/30 10:31:11;;;;;;;16.60;6.95;;;;;;;33.29;65.12;100844.78;4946530;28;70048;-38
2023/12/30 10:33:42;;;;;;;17.77;7.10;;;;;;;33.29;66.02;100852.94;4948072;28;66740;-39
2023/12/30 10:36:14;;;;;;;14.73;6.93;;;;;;;33.09;65.59;100825.25;4970634;28;69779;-38
2023/12/30 10:38:45;;;;;;;13.93;7.18;;;;;;;33.24;65.21;100850.09;4970447;28;66600;-39
2023/12/30 10:41:15;;;;;;;21.92;8.63;;;;;;;33.38;65.24;100859.66;4963647;28;68878;-38
2023/12/30 10:43:46;;;;;;;10.60;6.68;;;;;;;33.59;63.97;100849.22;4959066;28;65690;-39
2023/12/30 10:46:19;;;;;;;12.00;6.82;;;;;;;33.74;63.68;100855.00;4967281;28;69828;-41
2023/12/30 10:49:03;;;;;;;10.65;6.75;;;;;;;33.80;64.13;100862.19;4966622;28;65854;-38
2023/12/30 10:51:34;;;;;;;11.30;7.10;;;;;;;33.84;63.69;100851.66;4970487;28;69560;-40
2023/12/30 10:54:06;;;;;;;16.03;9.03;;;;;;;33.92;63.74;100858.63;4973339;28;65667;-38
2023/12/30 10:56:40;;;;;;;19.33;10.60;;;;;;;33.94;63.64;100856.47;4969146;28;69742;-39
2023/12/30 10:59:13;;;;;;;18.25;11.85;;;;;;;33.98;63.17;100869.34;4970734;28;65437;-39
2023/12/30 11:01:43;;;;;;;17.95;11.70;;;;;;;33.96;63.89;100860.63;4969367;28;69965;-38
2023/12/30 11:04:14;;;;;;;25.30;12.55;;;;;;;34.00;63.65;100878.09;4967156;28;65254;-40
2023/12/30 11:06:56;;;;;;;18.88;12.15;;;;;;;34.02;63.85;100877.88;4946587;28;70579;-38
2023/12/30 11:09:30;;;;;;;18.67;13.03;;;;;;;34.01;63.64;100889.81;4969951;28;66274;-38
2023/12/30 11:12:02;;;;;;;25.80;13.77;;;;;;;34.01;64.32;100879.75;4949141;28;70358;-38
2023/12/30 11:14:36;;;;;;;20.90;13.43;;;;;;;33.97;63.82;100878.59;4939793;28;66290;-44
2023/12/30 11:17:07;;;;;;;17.65;14.13;;;;;;;34.00;64.33;100877.28;4949509;28;69995;-39
2023/12/30 11:19:39;;;;;;;23.85;15.98;;;;;;;33.87;63.73;100862.03;4974064;28;65869;-39
2023/12/30 11:22:11;;;;;;;31.48;24.35;;;;;;;33.97;63.96;100885.94;4942809;28;69967;-39
2023/12/30 11:24:47;;;;;;;47.67;34.83;;;;;;;33.49;64.42;100813.63;4970634;28;66490;-39
2023/12/30 11:27:18;;;;;;;54.30;41.70;;;;;;;33.95;64.08;100888.06;4964338;28;69325;-37
2023/12/30 11:29:53;;;;;;;55.45;42.60;;;;;;;33.83;64.45;100876.41;4945848;28;65289;-39
2023/12/30 11:32:24;;;;;;;53.33;41.13;;;;;;;33.98;64.52;100901.19;4969049;28;70402;-41
2023/12/30 11:34:59;;;;;;;57.88;40.50;;;;;;;33.95;64.31;100907.94;4966671;28;66225;-39